Accueil
Images satellite Prévisions 15 joursClimatMétéo marine Cyclones Foudre AéroportsFAQ Actualités A propos
Météo : Europe Afrique Amérique du Nord Amérique du Sud Asie Australie-Océanie Autres
Langues Contact

Florennes, Belgique

Base aérienne

latitude: 50-14N, longitude: 004-39E, altitude: 279 m


METAR: EBFS 021825Z 03006KT 9999 FEW040 16/12 Q1023 BLU BLU
short-TAF: EBFS 021543Z 0219/0307 05006KT 9999 SCT050 BECMG 0219/0221 FEW050 TEMPO 0304/0306 VRB04KT 4000 BR/MIFG
long-TAF: EBFS 021543Z 0219/0307 05006KT 9999 SCT050 BECMG 0219/0221 FEW050 TEMPO 0304/0306 VRB04KT 4000 BR/MIFG

Heure: 20:51 (18:51 UTC)

Observation

Le bulletin a été fait il y a 26 minutes, à 18:25 UTC  
Vent 06 kt de nord/nord-est
Température 16°C
Humidité 77%
Pression 1023 hPa
Visibilité 10 km ou plus
Quelques nuages à une hauteur de 4000 ft

Changer d'unités

Prévision

Le bulletin a été fait il y a 3 heures et 3 minutes, à 15:48 UTC  
Prévision valable du 02 à 19 UTC au 03 à 07 UTC
Vent 06 kt de nord-est
Visibilité 10 km ou plus
Nuages épars à une hauteur de 5000 ft
Evoluant progressivement
du 02 à 19 UTC au 02 à 21 UTC
Quelques nuages à une hauteur de 5000 ft
Temporairement
du 03 à 04 UTC au 03 à 06 UTC
Vent 04 kt de direction variable
Visibilité 4000 m

Prévision

Le bulletin a été fait il y a 3 heures et 0 minutes, à 15:51 UTC  
Prévision valable du 02 à 19 UTC au 03 à 07 UTC
Vent 06 kt de nord-est
Visibilité 10 km ou plus
Nuages épars à une hauteur de 5000 ft
Evoluant progressivement
du 02 à 19 UTC au 02 à 21 UTC
Quelques nuages à une hauteur de 5000 ft
Temporairement
du 03 à 04 UTC au 03 à 06 UTC
Vent 04 kt de direction variable
Visibilité 4000 m
Les informations qui figurent sur ce site font l'objet d'une clause de non-responsabilité
Météo : Europe Afrique Amérique du Nord Amérique du Sud Asie Australie-Océanie Autres
Images satellite Prévisions 15 joursClimatMétéo marine Cyclones Foudre AéroportsFAQ Langues Contact Actualités A propos